Terminal Aerodrome Forecast
Issued by NWS Knoxville/Tri Cities, TN

Home | Current Version | Previous Version | Text Only | Print | Product List | Glossary On
Versions: 1 2 3 4 5 6 7 8 9 10 11 12 13 14 15 16 17 18 19 20 21 22 23 24 25 26 27 28 29 30 31
681
FTUS44 KMRX 270520
TAFCHA
TAF
KCHA 270520Z 2706/2806 VRB02KT P6SM VCSH SCT050 BKN100
     FM270800 00000KT 4SM BR SCT004 SCT150
      TEMPO 2710/2712 2SM BR
     FM271200 10003KT P6SM SCT070
     FM280100 VRB02KT P6SM FEW060=

USA.gov is the U.S. government's official web portal to all federal, state and local government web resources and services.